sensor_id;sensor_type;location;lat;lon;timestamp;P1;durP1;ratioP1;P2;durP2;ratioP2
57627;SDS011;43451;49.060;10.616;2023-06-22T00:08:41;12.55;;;9.05;;
57627;SDS011;43451;49.060;10.616;2023-06-22T00:11:21;14.57;;;10.07;;
57627;SDS011;43451;49.060;10.616;2023-06-22T00:16:54;17.95;;;10.30;;
57627;SDS011;43451;49.060;10.616;2023-06-22T00:22:17;17.60;;;9.70;;
57627;SDS011;43451;49.060;10.616;2023-06-22T00:27:45;13.13;;;10.40;;
57627;SDS011;43451;49.060;10.616;2023-06-22T00:30:11;15.13;;;9.73;;
57627;SDS011;43451;49.060;10.616;2023-06-22T00:32:37;18.73;;;10.70;;
57627;SDS011;43451;49.060;10.616;2023-06-22T00:37:50;19.63;;;10.95;;
57627;SDS011;43451;49.060;10.616;2023-06-22T00:42:54;16.58;;;10.68;;
57627;SDS011;43451;49.060;10.616;2023-06-22T00:45:26;15.40;;;10.82;;
57627;SDS011;43451;49.060;10.616;2023-06-22T00:47:52;15.23;;;10.52;;
57627;SDS011;43451;49.060;10.616;2023-06-22T00:50:29;16.00;;;10.65;;
57627;SDS011;43451;49.060;10.616;2023-06-22T00:53:04;16.73;;;10.90;;
57627;SDS011;43451;49.060;10.616;2023-06-22T01:04:08;13.90;;;10.52;;
57627;SDS011;43451;49.060;10.616;2023-06-22T01:12:38;15.50;;;10.48;;
57627;SDS011;43451;49.060;10.616;2023-06-22T01:21:04;12.00;;;9.48;;
57627;SDS011;43451;49.060;10.616;2023-06-22T01:29:08;13.95;;;9.95;;
57627;SDS011;43451;49.060;10.616;2023-06-22T01:31:39;16.13;;;10.13;;
57627;SDS011;43451;49.060;10.616;2023-06-22T01:34:07;15.68;;;9.80;;
57627;SDS011;43451;49.060;10.616;2023-06-22T01:36:33;15.10;;;9.17;;
57627;SDS011;43451;49.060;10.616;2023-06-22T01:39:00;15.50;;;9.32;;
57627;SDS011;43451;49.060;10.616;2023-06-22T01:41:29;12.80;;;9.18;;
57627;SDS011;43451;49.060;10.616;2023-06-22T01:43:56;13.50;;;9.70;;
57627;SDS011;43451;49.060;10.616;2023-06-22T01:46:22;17.15;;;10.18;;
57627;SDS011;43451;49.060;10.616;2023-06-22T01:48:48;13.00;;;9.18;;
57627;SDS011;43451;49.060;10.616;2023-06-22T01:51:16;13.82;;;10.60;;
57627;SDS011;43451;49.060;10.616;2023-06-22T01:53:41;13.80;;;10.10;;
57627;SDS011;43451;49.060;10.616;2023-06-22T01:56:07;15.20;;;9.90;;
57627;SDS011;43451;49.060;10.616;2023-06-22T01:58:34;14.10;;;9.98;;
57627;SDS011;43451;49.060;10.616;2023-06-22T02:01:10;19.70;;;10.27;;
57627;SDS011;43451;49.060;10.616;2023-06-22T02:03:38;14.02;;;9.65;;
57627;SDS011;43451;49.060;10.616;2023-06-22T02:06:21;16.38;;;10.70;;
57627;SDS011;43451;49.060;10.616;2023-06-22T02:08:57;15.85;;;9.73;;
57627;SDS011;43451;49.060;10.616;2023-06-22T02:11:26;18.23;;;10.25;;
57627;SDS011;43451;49.060;10.616;2023-06-22T02:13:54;12.98;;;9.95;;
57627;SDS011;43451;49.060;10.616;2023-06-22T02:16:20;18.53;;;9.83;;
57627;SDS011;43451;49.060;10.616;2023-06-22T02:18:47;12.30;;;10.10;;
57627;SDS011;43451;49.060;10.616;2023-06-22T02:21:15;14.48;;;9.25;;
57627;SDS011;43451;49.060;10.616;2023-06-22T02:23:42;14.63;;;9.75;;
57627;SDS011;43451;49.060;10.616;2023-06-22T02:26:08;13.55;;;9.80;;
57627;SDS011;43451;49.060;10.616;2023-06-22T02:28:34;11.43;;;9.00;;
57627;SDS011;43451;49.060;10.616;2023-06-22T02:30:59;17.15;;;10.18;;
57627;SDS011;43451;49.060;10.616;2023-06-22T02:33:25;16.73;;;9.90;;
57627;SDS011;43451;49.060;10.616;2023-06-22T02:35:51;20.52;;;10.50;;
57627;SDS011;43451;49.060;10.616;2023-06-22T02:38:17;17.80;;;10.00;;
57627;SDS011;43451;49.060;10.616;2023-06-22T02:40:42;17.63;;;10.68;;
57627;SDS011;43451;49.060;10.616;2023-06-22T02:43:08;18.55;;;11.35;;
57627;SDS011;43451;49.060;10.616;2023-06-22T02:45:33;19.63;;;11.23;;
57627;SDS011;43451;49.060;10.616;2023-06-22T02:47:59;14.20;;;10.32;;
57627;SDS011;43451;49.060;10.616;2023-06-22T02:50:24;13.68;;;11.07;;
57627;SDS011;43451;49.060;10.616;2023-06-22T02:52:50;14.82;;;10.15;;
57627;SDS011;43451;49.060;10.616;2023-06-22T02:55:16;14.93;;;10.40;;
57627;SDS011;43451;49.060;10.616;2023-06-22T02:57:41;14.25;;;9.70;;
57627;SDS011;43451;49.060;10.616;2023-06-22T03:00:09;16.55;;;9.63;;
57627;SDS011;43451;49.060;10.616;2023-06-22T03:02:43;12.98;;;9.77;;
57627;SDS011;43451;49.060;10.616;2023-06-22T03:05:10;17.13;;;9.97;;
57627;SDS011;43451;49.060;10.616;2023-06-22T03:07:41;15.82;;;9.90;;
57627;SDS011;43451;49.060;10.616;2023-06-22T03:10:10;15.10;;;9.88;;
57627;SDS011;43451;49.060;10.616;2023-06-22T03:12:37;18.42;;;10.18;;
57627;SDS011;43451;49.060;10.616;2023-06-22T03:15:07;20.60;;;9.98;;
57627;SDS011;43451;49.060;10.616;2023-06-22T03:17:34;17.13;;;9.48;;
57627;SDS011;43451;49.060;10.616;2023-06-22T03:20:03;13.07;;;9.65;;
57627;SDS011;43451;49.060;10.616;2023-06-22T03:22:34;13.35;;;9.63;;
57627;SDS011;43451;49.060;10.616;2023-06-22T03:25:01;15.23;;;9.25;;
57627;SDS011;43451;49.060;10.616;2023-06-22T03:27:27;14.32;;;9.30;;
57627;SDS011;43451;49.060;10.616;2023-06-22T03:29:52;14.57;;;9.65;;
57627;SDS011;43451;49.060;10.616;2023-06-22T03:32:17;12.70;;;10.07;;
57627;SDS011;43451;49.060;10.616;2023-06-22T03:34:43;15.05;;;9.85;;
57627;SDS011;43451;49.060;10.616;2023-06-22T03:37:12;19.60;;;10.95;;
57627;SDS011;43451;49.060;10.616;2023-06-22T03:39:38;14.32;;;10.32;;
57627;SDS011;43451;49.060;10.616;2023-06-22T03:42:04;15.23;;;10.27;;
57627;SDS011;43451;49.060;10.616;2023-06-22T03:44:30;12.32;;;9.43;;
57627;SDS011;43451;49.060;10.616;2023-06-22T03:46:55;15.60;;;10.40;;
57627;SDS011;43451;49.060;10.616;2023-06-22T03:49:21;16.27;;;10.05;;
57627;SDS011;43451;49.060;10.616;2023-06-22T03:51:47;13.18;;;9.88;;
57627;SDS011;43451;49.060;10.616;2023-06-22T03:54:13;15.88;;;9.90;;
57627;SDS011;43451;49.060;10.616;2023-06-22T03:56:39;16.13;;;10.15;;
57627;SDS011;43451;49.060;10.616;2023-06-22T03:59:04;13.93;;;10.45;;
57627;SDS011;43451;49.060;10.616;2023-06-22T04:01:30;13.98;;;10.43;;
57627;SDS011;43451;49.060;10.616;2023-06-22T04:03:55;14.57;;;10.10;;
57627;SDS011;43451;49.060;10.616;2023-06-22T04:06:21;13.45;;;10.55;;
57627;SDS011;43451;49.060;10.616;2023-06-22T04:08:47;14.38;;;9.30;;
57627;SDS011;43451;49.060;10.616;2023-06-22T04:11:15;12.38;;;9.32;;
57627;SDS011;43451;49.060;10.616;2023-06-22T04:13:41;13.50;;;9.65;;
57627;SDS011;43451;49.060;10.616;2023-06-22T04:16:07;15.05;;;9.45;;
57627;SDS011;43451;49.060;10.616;2023-06-22T04:18:32;11.95;;;9.95;;
57627;SDS011;43451;49.060;10.616;2023-06-22T04:20:58;14.30;;;9.32;;
57627;SDS011;43451;49.060;10.616;2023-06-22T04:23:23;10.13;;;8.52;;
57627;SDS011;43451;49.060;10.616;2023-06-22T04:25:49;13.10;;;8.82;;
57627;SDS011;43451;49.060;10.616;2023-06-22T04:28:15;12.85;;;9.40;;
57627;SDS011;43451;49.060;10.616;2023-06-22T04:30:41;14.05;;;9.38;;
57627;SDS011;43451;49.060;10.616;2023-06-22T04:33:12;14.00;;;10.18;;
57627;SDS011;43451;49.060;10.616;2023-06-22T04:35:40;14.32;;;10.00;;
57627;SDS011;43451;49.060;10.616;2023-06-22T04:38:06;15.43;;;10.25;;
57627;SDS011;43451;49.060;10.616;2023-06-22T04:40:32;12.05;;;9.73;;
57627;SDS011;43451;49.060;10.616;2023-06-22T04:42:58;16.70;;;10.45;;
57627;SDS011;43451;49.060;10.616;2023-06-22T04:45:27;14.98;;;10.93;;
57627;SDS011;43451;49.060;10.616;2023-06-22T04:47:54;16.77;;;10.63;;
57627;SDS011;43451;49.060;10.616;2023-06-22T04:50:20;17.77;;;11.38;;
57627;SDS011;43451;49.060;10.616;2023-06-22T04:52:47;14.07;;;10.63;;
57627;SDS011;43451;49.060;10.616;2023-06-22T04:55:13;14.52;;;11.27;;
57627;SDS011;43451;49.060;10.616;2023-06-22T04:57:44;22.83;;;10.77;;
57627;SDS011;43451;49.060;10.616;2023-06-22T05:00:14;16.10;;;11.32;;
57627;SDS011;43451;49.060;10.616;2023-06-22T05:02:45;15.80;;;11.95;;
57627;SDS011;43451;49.060;10.616;2023-06-22T05:05:11;15.60;;;11.10;;
57627;SDS011;43451;49.060;10.616;2023-06-22T05:07:44;15.57;;;11.68;;
57627;SDS011;43451;49.060;10.616;2023-06-22T05:10:13;18.52;;;12.32;;
57627;SDS011;43451;49.060;10.616;2023-06-22T05:12:39;13.88;;;11.10;;
57627;SDS011;43451;49.060;10.616;2023-06-22T05:15:09;14.07;;;11.87;;
57627;SDS011;43451;49.060;10.616;2023-06-22T05:17:35;17.10;;;12.15;;
57627;SDS011;43451;49.060;10.616;2023-06-22T05:20:02;19.60;;;12.48;;
57627;SDS011;43451;49.060;10.616;2023-06-22T05:22:31;18.13;;;12.38;;
57627;SDS011;43451;49.060;10.616;2023-06-22T05:24:56;16.75;;;12.52;;
57627;SDS011;43451;49.060;10.616;2023-06-22T05:27:22;18.98;;;12.55;;
57627;SDS011;43451;49.060;10.616;2023-06-22T05:29:47;16.08;;;12.05;;
57627;SDS011;43451;49.060;10.616;2023-06-22T05:32:13;14.75;;;11.73;;
57627;SDS011;43451;49.060;10.616;2023-06-22T05:34:38;15.32;;;11.73;;
57627;SDS011;43451;49.060;10.616;2023-06-22T05:37:04;15.02;;;11.48;;
57627;SDS011;43451;49.060;10.616;2023-06-22T05:39:30;13.88;;;11.15;;
57627;SDS011;43451;49.060;10.616;2023-06-22T05:41:55;15.45;;;10.90;;
57627;SDS011;43451;49.060;10.616;2023-06-22T05:44:21;16.20;;;11.10;;
57627;SDS011;43451;49.060;10.616;2023-06-22T05:46:47;16.20;;;10.25;;
57627;SDS011;43451;49.060;10.616;2023-06-22T05:49:13;15.95;;;10.82;;
57627;SDS011;43451;49.060;10.616;2023-06-22T05:51:39;13.18;;;10.88;;
57627;SDS011;43451;49.060;10.616;2023-06-22T05:54:05;14.23;;;10.20;;
57627;SDS011;43451;49.060;10.616;2023-06-22T05:56:33;13.00;;;10.45;;
57627;SDS011;43451;49.060;10.616;2023-06-22T05:58:58;14.75;;;10.38;;
57627;SDS011;43451;49.060;10.616;2023-06-22T06:01:24;13.27;;;10.23;;
57627;SDS011;43451;49.060;10.616;2023-06-22T06:03:51;14.50;;;11.18;;
57627;SDS011;43451;49.060;10.616;2023-06-22T06:06:17;14.55;;;10.18;;
57627;SDS011;43451;49.060;10.616;2023-06-22T06:08:44;12.07;;;10.25;;
57627;SDS011;43451;49.060;10.616;2023-06-22T06:11:10;15.55;;;9.77;;
57627;SDS011;43451;49.060;10.616;2023-06-22T06:13:35;12.40;;;9.75;;
57627;SDS011;43451;49.060;10.616;2023-06-22T06:16:01;13.32;;;9.88;;
57627;SDS011;43451;49.060;10.616;2023-06-22T06:18:27;13.20;;;10.02;;
57627;SDS011;43451;49.060;10.616;2023-06-22T06:20:52;17.65;;;10.43;;
57627;SDS011;43451;49.060;10.616;2023-06-22T06:23:18;14.68;;;10.40;;
57627;SDS011;43451;49.060;10.616;2023-06-22T06:25:43;17.42;;;10.40;;
57627;SDS011;43451;49.060;10.616;2023-06-22T06:28:09;14.40;;;10.20;;
57627;SDS011;43451;49.060;10.616;2023-06-22T06:30:34;11.63;;;9.95;;
57627;SDS011;43451;49.060;10.616;2023-06-22T06:33:02;13.98;;;9.82;;
57627;SDS011;43451;49.060;10.616;2023-06-22T06:35:29;13.23;;;10.48;;
57627;SDS011;43451;49.060;10.616;2023-06-22T06:37:55;17.20;;;10.40;;
57627;SDS011;43451;49.060;10.616;2023-06-22T06:40:20;13.63;;;10.10;;
57627;SDS011;43451;49.060;10.616;2023-06-22T06:42:47;14.18;;;10.00;;
57627;SDS011;43451;49.060;10.616;2023-06-22T06:45:20;13.32;;;10.00;;
57627;SDS011;43451;49.060;10.616;2023-06-22T06:47:50;13.68;;;9.90;;
57627;SDS011;43451;49.060;10.616;2023-06-22T06:50:17;16.17;;;10.63;;
57627;SDS011;43451;49.060;10.616;2023-06-22T06:52:43;14.70;;;10.80;;
57627;SDS011;43451;49.060;10.616;2023-06-22T06:55:09;13.98;;;10.82;;
57627;SDS011;43451;49.060;10.616;2023-06-22T06:57:37;14.20;;;10.77;;
57627;SDS011;43451;49.060;10.616;2023-06-22T07:00:04;14.40;;;10.67;;
57627;SDS011;43451;49.060;10.616;2023-06-22T07:02:39;15.35;;;11.13;;
57627;SDS011;43451;49.060;10.616;2023-06-22T07:05:05;11.35;;;10.05;;
57627;SDS011;43451;49.060;10.616;2023-06-22T07:07:31;12.45;;;10.30;;
57627;SDS011;43451;49.060;10.616;2023-06-22T07:09:57;12.40;;;10.05;;
57627;SDS011;43451;49.060;10.616;2023-06-22T07:12:22;16.75;;;9.73;;
57627;SDS011;43451;49.060;10.616;2023-06-22T07:14:48;14.60;;;10.27;;
57627;SDS011;43451;49.060;10.616;2023-06-22T07:17:14;12.35;;;9.65;;
57627;SDS011;43451;49.060;10.616;2023-06-22T07:19:39;13.57;;;9.40;;
57627;SDS011;43451;49.060;10.616;2023-06-22T07:22:06;14.10;;;10.23;;
57627;SDS011;43451;49.060;10.616;2023-06-22T07:24:32;14.38;;;9.18;;
57627;SDS011;43451;49.060;10.616;2023-06-22T07:26:58;12.10;;;8.75;;
57627;SDS011;43451;49.060;10.616;2023-06-22T07:29:24;15.90;;;8.45;;
57627;SDS011;43451;49.060;10.616;2023-06-22T07:31:52;11.90;;;8.73;;
57627;SDS011;43451;49.060;10.616;2023-06-22T07:34:18;10.55;;;7.93;;
57627;SDS011;43451;49.060;10.616;2023-06-22T07:36:44;13.38;;;8.88;;
57627;SDS011;43451;49.060;10.616;2023-06-22T07:39:10;11.23;;;7.77;;
57627;SDS011;43451;49.060;10.616;2023-06-22T07:41:37;15.30;;;8.88;;
57627;SDS011;43451;49.060;10.616;2023-06-22T07:44:04;14.43;;;7.43;;
57627;SDS011;43451;49.060;10.616;2023-06-22T07:46:31;11.30;;;7.47;;
57627;SDS011;43451;49.060;10.616;2023-06-22T07:48:57;9.93;;;7.05;;
57627;SDS011;43451;49.060;10.616;2023-06-22T07:51:22;11.15;;;7.20;;
57627;SDS011;43451;49.060;10.616;2023-06-22T07:56:18;10.07;;;6.90;;
57627;SDS011;43451;49.060;10.616;2023-06-22T07:58:45;9.18;;;7.00;;
57627;SDS011;43451;49.060;10.616;2023-06-22T08:01:12;12.80;;;6.97;;
57627;SDS011;43451;49.060;10.616;2023-06-22T08:03:39;11.68;;;7.40;;
57627;SDS011;43451;49.060;10.616;2023-06-22T08:06:06;9.23;;;6.50;;
57627;SDS011;43451;49.060;10.616;2023-06-22T08:08:34;10.15;;;6.80;;
57627;SDS011;43451;49.060;10.616;2023-06-22T08:11:02;11.10;;;6.88;;
57627;SDS011;43451;49.060;10.616;2023-06-22T08:13:28;13.85;;;6.50;;
57627;SDS011;43451;49.060;10.616;2023-06-22T08:15:54;11.75;;;6.03;;
57627;SDS011;43451;49.060;10.616;2023-06-22T08:18:19;10.70;;;6.13;;
57627;SDS011;43451;49.060;10.616;2023-06-22T08:20:45;14.02;;;5.78;;
57627;SDS011;43451;49.060;10.616;2023-06-22T08:23:11;9.27;;;5.80;;
57627;SDS011;43451;49.060;10.616;2023-06-22T08:25:36;10.63;;;5.35;;
57627;SDS011;43451;49.060;10.616;2023-06-22T08:28:03;9.07;;;4.93;;
57627;SDS011;43451;49.060;10.616;2023-06-22T08:30:29;13.10;;;5.50;;
57627;SDS011;43451;49.060;10.616;2023-06-22T08:32:55;8.02;;;5.30;;
57627;SDS011;43451;49.060;10.616;2023-06-22T08:35:22;10.05;;;5.03;;
57627;SDS011;43451;49.060;10.616;2023-06-22T08:37:48;10.63;;;4.90;;
57627;SDS011;43451;49.060;10.616;2023-06-22T08:40:18;12.88;;;5.25;;
57627;SDS011;43451;49.060;10.616;2023-06-22T08:42:47;8.60;;;4.55;;
57627;SDS011;43451;49.060;10.616;2023-06-22T08:45:14;10.00;;;4.33;;
57627;SDS011;43451;49.060;10.616;2023-06-22T08:47:41;12.18;;;4.32;;
57627;SDS011;43451;49.060;10.616;2023-06-22T08:50:07;9.95;;;4.40;;
57627;SDS011;43451;49.060;10.616;2023-06-22T08:52:37;7.97;;;4.10;;
57627;SDS011;43451;49.060;10.616;2023-06-22T08:55:06;7.88;;;4.00;;
57627;SDS011;43451;49.060;10.616;2023-06-22T08:57:32;9.43;;;4.20;;
57627;SDS011;43451;49.060;10.616;2023-06-22T08:59:58;11.10;;;4.50;;
57627;SDS011;43451;49.060;10.616;2023-06-22T09:02:27;7.37;;;3.70;;
57627;SDS011;43451;49.060;10.616;2023-06-22T09:04:56;7.47;;;4.25;;
57627;SDS011;43451;49.060;10.616;2023-06-22T09:07:24;7.10;;;3.90;;
57627;SDS011;43451;49.060;10.616;2023-06-22T09:09:51;9.05;;;3.30;;
57627;SDS011;43451;49.060;10.616;2023-06-22T09:12:17;6.03;;;3.38;;
57627;SDS011;43451;49.060;10.616;2023-06-22T09:14:45;11.20;;;3.65;;
57627;SDS011;43451;49.060;10.616;2023-06-22T09:17:11;7.30;;;3.42;;
57627;SDS011;43451;49.060;10.616;2023-06-22T09:19:37;8.68;;;3.50;;
57627;SDS011;43451;49.060;10.616;2023-06-22T09:22:03;6.38;;;3.45;;
57627;SDS011;43451;49.060;10.616;2023-06-22T09:24:31;9.68;;;3.72;;
57627;SDS011;43451;49.060;10.616;2023-06-22T09:26:56;12.85;;;3.67;;
57627;SDS011;43451;49.060;10.616;2023-06-22T09:29:22;9.80;;;3.83;;
57627;SDS011;43451;49.060;10.616;2023-06-22T09:31:47;5.57;;;3.65;;
57627;SDS011;43451;49.060;10.616;2023-06-22T09:34:13;8.95;;;3.67;;
57627;SDS011;43451;49.060;10.616;2023-06-22T09:36:38;11.07;;;3.47;;
57627;SDS011;43451;49.060;10.616;2023-06-22T09:39:05;9.98;;;3.78;;
57627;SDS011;43451;49.060;10.616;2023-06-22T09:41:31;7.45;;;3.53;;
57627;SDS011;43451;49.060;10.616;2023-06-22T09:43:57;10.70;;;3.80;;
57627;SDS011;43451;49.060;10.616;2023-06-22T09:46:23;11.98;;;4.03;;
57627;SDS011;43451;49.060;10.616;2023-06-22T09:48:50;8.43;;;3.67;;
57627;SDS011;43451;49.060;10.616;2023-06-22T09:51:16;9.95;;;3.33;;
57627;SDS011;43451;49.060;10.616;2023-06-22T09:53:42;9.52;;;3.45;;
57627;SDS011;43451;49.060;10.616;2023-06-22T09:56:07;9.77;;;4.05;;
57627;SDS011;43451;49.060;10.616;2023-06-22T09:58:36;9.93;;;3.90;;
57627;SDS011;43451;49.060;10.616;2023-06-22T10:01:01;9.20;;;3.65;;
57627;SDS011;43451;49.060;10.616;2023-06-22T10:03:27;9.75;;;3.70;;
57627;SDS011;43451;49.060;10.616;2023-06-22T10:05:52;7.55;;;4.10;;
57627;SDS011;43451;49.060;10.616;2023-06-22T10:08:18;11.75;;;4.07;;
57627;SDS011;43451;49.060;10.616;2023-06-22T10:10:43;10.75;;;3.70;;
57627;SDS011;43451;49.060;10.616;2023-06-22T10:13:09;15.05;;;4.13;;
57627;SDS011;43451;49.060;10.616;2023-06-22T10:15:35;10.05;;;4.13;;
57627;SDS011;43451;49.060;10.616;2023-06-22T10:18:01;11.32;;;3.80;;
57627;SDS011;43451;49.060;10.616;2023-06-22T10:20:27;9.45;;;3.67;;
57627;SDS011;43451;49.060;10.616;2023-06-22T10:22:53;11.02;;;3.90;;
57627;SDS011;43451;49.060;10.616;2023-06-22T10:25:22;11.07;;;3.97;;
57627;SDS011;43451;49.060;10.616;2023-06-22T10:27:47;16.00;;;3.92;;
57627;SDS011;43451;49.060;10.616;2023-06-22T10:30:13;13.00;;;4.20;;
57627;SDS011;43451;49.060;10.616;2023-06-22T10:32:39;10.60;;;4.03;;
57627;SDS011;43451;49.060;10.616;2023-06-22T10:35:07;11.10;;;3.97;;
57627;SDS011;43451;49.060;10.616;2023-06-22T10:37:33;12.10;;;4.67;;
57627;SDS011;43451;49.060;10.616;2023-06-22T10:39:59;13.05;;;4.05;;
57627;SDS011;43451;49.060;10.616;2023-06-22T10:42:24;14.57;;;4.53;;
57627;SDS011;43451;49.060;10.616;2023-06-22T10:44:50;17.42;;;4.00;;
57627;SDS011;43451;49.060;10.616;2023-06-22T10:47:16;12.68;;;4.35;;
57627;SDS011;43451;49.060;10.616;2023-06-22T10:49:41;14.90;;;4.50;;
57627;SDS011;43451;49.060;10.616;2023-06-22T10:52:07;12.13;;;4.75;;
57627;SDS011;43451;49.060;10.616;2023-06-22T10:54:34;11.70;;;4.28;;
57627;SDS011;43451;49.060;10.616;2023-06-22T10:59:26;13.60;;;4.27;;
57627;SDS011;43451;49.060;10.616;2023-06-22T11:06:45;9.83;;;4.00;;
57627;SDS011;43451;49.060;10.616;2023-06-22T11:09:11;12.50;;;4.40;;
57627;SDS011;43451;49.060;10.616;2023-06-22T11:11:37;10.60;;;4.45;;
57627;SDS011;43451;49.060;10.616;2023-06-22T11:14:02;15.00;;;4.43;;
57627;SDS011;43451;49.060;10.616;2023-06-22T11:16:28;12.27;;;4.30;;
57627;SDS011;43451;49.060;10.616;2023-06-22T11:18:53;16.10;;;4.55;;
57627;SDS011;43451;49.060;10.616;2023-06-22T11:21:19;19.92;;;4.70;;
57627;SDS011;43451;49.060;10.616;2023-06-22T11:23:45;17.90;;;4.75;;
57627;SDS011;43451;49.060;10.616;2023-06-22T11:26:10;14.35;;;4.78;;
57627;SDS011;43451;49.060;10.616;2023-06-22T11:28:36;13.15;;;4.93;;
57627;SDS011;43451;49.060;10.616;2023-06-22T11:31:01;26.42;;;5.15;;
57627;SDS011;43451;49.060;10.616;2023-06-22T11:33:27;13.55;;;4.68;;
57627;SDS011;43451;49.060;10.616;2023-06-22T11:35:53;15.43;;;4.60;;
57627;SDS011;43451;49.060;10.616;2023-06-22T11:38:18;13.55;;;4.32;;
57627;SDS011;43451;49.060;10.616;2023-06-22T11:40:44;15.45;;;4.60;;
57627;SDS011;43451;49.060;10.616;2023-06-22T11:43:09;16.05;;;4.18;;
57627;SDS011;43451;49.060;10.616;2023-06-22T11:45:35;11.65;;;4.50;;
57627;SDS011;43451;49.060;10.616;2023-06-22T11:48:01;12.47;;;4.90;;
57627;SDS011;43451;49.060;10.616;2023-06-22T11:50:26;20.67;;;4.88;;
57627;SDS011;43451;49.060;10.616;2023-06-22T11:52:53;26.67;;;5.03;;
57627;SDS011;43451;49.060;10.616;2023-06-22T11:55:19;19.10;;;4.77;;
57627;SDS011;43451;49.060;10.616;2023-06-22T11:57:53;10.37;;;4.30;;
57627;SDS011;43451;49.060;10.616;2023-06-22T12:00:20;11.50;;;4.50;;
57627;SDS011;43451;49.060;10.616;2023-06-22T12:02:48;19.27;;;4.85;;
57627;SDS011;43451;49.060;10.616;2023-06-22T12:05:13;22.43;;;5.00;;
57627;SDS011;43451;49.060;10.616;2023-06-22T12:07:39;18.20;;;4.87;;
57627;SDS011;43451;49.060;10.616;2023-06-22T12:10:05;11.50;;;4.13;;
57627;SDS011;43451;49.060;10.616;2023-06-22T12:12:31;12.77;;;4.30;;
57627;SDS011;43451;49.060;10.616;2023-06-22T12:14:56;10.90;;;4.45;;
57627;SDS011;43451;49.060;10.616;2023-06-22T12:17:21;14.40;;;4.67;;
57627;SDS011;43451;49.060;10.616;2023-06-22T12:19:47;10.30;;;4.40;;
57627;SDS011;43451;49.060;10.616;2023-06-22T12:22:13;11.50;;;4.90;;
57627;SDS011;43451;49.060;10.616;2023-06-22T12:24:38;12.03;;;4.37;;
57627;SDS011;43451;49.060;10.616;2023-06-22T12:27:04;14.87;;;4.60;;
57627;SDS011;43451;49.060;10.616;2023-06-22T12:29:29;10.33;;;4.33;;
57627;SDS011;43451;49.060;10.616;2023-06-22T12:31:55;14.00;;;4.60;;
57627;SDS011;43451;49.060;10.616;2023-06-22T12:34:22;16.20;;;4.53;;
57627;SDS011;43451;49.060;10.616;2023-06-22T12:36:47;12.90;;;4.67;;
57627;SDS011;43451;49.060;10.616;2023-06-22T12:39:14;13.53;;;4.63;;
57627;SDS011;43451;49.060;10.616;2023-06-22T12:41:39;15.80;;;4.73;;
57627;SDS011;43451;49.060;10.616;2023-06-22T12:44:05;12.83;;;4.40;;
57627;SDS011;43451;49.060;10.616;2023-06-22T12:46:31;13.30;;;4.40;;
57627;SDS011;43451;49.060;10.616;2023-06-22T12:49:02;11.05;;;4.55;;
57627;SDS011;43451;49.060;10.616;2023-06-22T12:53:55;14.10;;;4.43;;
57627;SDS011;43451;49.060;10.616;2023-06-22T12:56:20;13.33;;;4.60;;
57627;SDS011;43451;49.060;10.616;2023-06-22T12:58:46;9.57;;;4.10;;
57627;SDS011;43451;49.060;10.616;2023-06-22T13:01:12;14.57;;;4.70;;
57627;SDS011;43451;49.060;10.616;2023-06-22T13:03:37;13.67;;;4.60;;
57627;SDS011;43451;49.060;10.616;2023-06-22T13:06:03;21.60;;;5.00;;
57627;SDS011;43451;49.060;10.616;2023-06-22T13:08:29;14.32;;;4.78;;
57627;SDS011;43451;49.060;10.616;2023-06-22T13:10:55;12.83;;;4.20;;
57627;SDS011;43451;49.060;10.616;2023-06-22T13:13:25;12.70;;;4.43;;
57627;SDS011;43451;49.060;10.616;2023-06-22T13:15:52;12.13;;;4.63;;
57627;SDS011;43451;49.060;10.616;2023-06-22T13:20:44;11.30;;;4.53;;
57627;SDS011;43451;49.060;10.616;2023-06-22T13:23:11;11.57;;;4.13;;
57627;SDS011;43451;49.060;10.616;2023-06-22T13:25:36;16.20;;;4.60;;
57627;SDS011;43451;49.060;10.616;2023-06-22T13:28:02;12.90;;;4.67;;
57627;SDS011;43451;49.060;10.616;2023-06-22T13:30:28;20.97;;;4.70;;
57627;SDS011;43451;49.060;10.616;2023-06-22T13:32:53;18.70;;;4.90;;
57627;SDS011;43451;49.060;10.616;2023-06-22T13:35:19;8.93;;;4.20;;
57627;SDS011;43451;49.060;10.616;2023-06-22T13:37:44;14.53;;;4.60;;
57627;SDS011;43451;49.060;10.616;2023-06-22T13:40:10;15.13;;;4.90;;
57627;SDS011;43451;49.060;10.616;2023-06-22T13:42:36;14.27;;;4.47;;
57627;SDS011;43451;49.060;10.616;2023-06-22T13:45:02;12.27;;;4.53;;
57627;SDS011;43451;49.060;10.616;2023-06-22T13:47:28;16.10;;;4.53;;
57627;SDS011;43451;49.060;10.616;2023-06-22T13:49:55;11.27;;;4.50;;
57627;SDS011;43451;49.060;10.616;2023-06-22T13:52:20;13.13;;;4.40;;
57627;SDS011;43451;49.060;10.616;2023-06-22T13:54:46;15.83;;;4.50;;
57627;SDS011;43451;49.060;10.616;2023-06-22T13:57:11;11.90;;;4.40;;
57627;SDS011;43451;49.060;10.616;2023-06-22T13:59:37;12.43;;;4.13;;
57627;SDS011;43451;49.060;10.616;2023-06-22T14:02:03;19.67;;;4.20;;
57627;SDS011;43451;49.060;10.616;2023-06-22T14:04:29;16.83;;;4.80;;
57627;SDS011;43451;49.060;10.616;2023-06-22T14:06:54;15.17;;;4.90;;
57627;SDS011;43451;49.060;10.616;2023-06-22T14:09:21;12.38;;;4.55;;
57627;SDS011;43451;49.060;10.616;2023-06-22T14:11:47;13.07;;;4.47;;
57627;SDS011;43451;49.060;10.616;2023-06-22T14:14:12;15.03;;;4.33;;
57627;SDS011;43451;49.060;10.616;2023-06-22T14:16:38;15.27;;;4.70;;
57627;SDS011;43451;49.060;10.616;2023-06-22T14:19:03;14.10;;;4.90;;
57627;SDS011;43451;49.060;10.616;2023-06-22T14:21:29;19.63;;;5.17;;
57627;SDS011;43451;49.060;10.616;2023-06-22T14:23:55;17.27;;;5.17;;
57627;SDS011;43451;49.060;10.616;2023-06-22T14:26:20;10.27;;;4.60;;
57627;SDS011;43451;49.060;10.616;2023-06-22T14:28:46;19.73;;;5.30;;
57627;SDS011;43451;49.060;10.616;2023-06-22T14:31:16;14.27;;;4.35;;
57627;SDS011;43451;49.060;10.616;2023-06-22T14:33:44;11.68;;;4.93;;
57627;SDS011;43451;49.060;10.616;2023-06-22T14:36:12;11.48;;;4.63;;
57627;SDS011;43451;49.060;10.616;2023-06-22T14:38:38;16.20;;;4.85;;
57627;SDS011;43451;49.060;10.616;2023-06-22T14:41:04;13.30;;;4.43;;
57627;SDS011;43451;49.060;10.616;2023-06-22T14:43:30;15.10;;;4.80;;
57627;SDS011;43451;49.060;10.616;2023-06-22T14:45:55;13.80;;;4.67;;
57627;SDS011;43451;49.060;10.616;2023-06-22T14:48:21;17.73;;;4.83;;
57627;SDS011;43451;49.060;10.616;2023-06-22T14:50:47;21.50;;;5.00;;
57627;SDS011;43451;49.060;10.616;2023-06-22T14:53:12;19.13;;;5.37;;
57627;SDS011;43451;49.060;10.616;2023-06-22T14:55:39;16.75;;;4.80;;
57627;SDS011;43451;49.060;10.616;2023-06-22T14:58:05;10.00;;;4.78;;
57627;SDS011;43451;49.060;10.616;2023-06-22T15:00:31;14.60;;;4.93;;
57627;SDS011;43451;49.060;10.616;2023-06-22T15:02:57;13.10;;;4.80;;
57627;SDS011;43451;49.060;10.616;2023-06-22T15:05:24;40.15;;;5.55;;
57627;SDS011;43451;49.060;10.616;2023-06-22T15:07:50;11.87;;;4.67;;
57627;SDS011;43451;49.060;10.616;2023-06-22T15:10:16;14.40;;;5.10;;
57627;SDS011;43451;49.060;10.616;2023-06-22T15:12:41;10.20;;;4.47;;
57627;SDS011;43451;49.060;10.616;2023-06-22T15:15:07;14.97;;;4.60;;
57627;SDS011;43451;49.060;10.616;2023-06-22T15:17:33;14.23;;;5.17;;